sensor_id;sensor_type;location;lat;lon;timestamp;P1;durP1;ratioP1;P2;durP2;ratioP2
13048;SDS011;6591;51.446;5.404;2023-03-19T00:00:43;1.67;;;1.53;;
13048;SDS011;6591;51.446;5.404;2023-03-19T00:03:10;3.40;;;1.60;;
13048;SDS011;6591;51.446;5.404;2023-03-19T00:05:37;3.27;;;1.17;;
13048;SDS011;6591;51.446;5.404;2023-03-19T00:08:04;1.43;;;1.20;;
13048;SDS011;6591;51.446;5.404;2023-03-19T00:10:31;1.63;;;1.30;;
13048;SDS011;6591;51.446;5.404;2023-03-19T00:13:03;1.77;;;1.20;;
13048;SDS011;6591;51.446;5.404;2023-03-19T00:15:30;1.57;;;1.40;;
13048;SDS011;6591;51.446;5.404;2023-03-19T00:17:58;2.77;;;1.80;;
13048;SDS011;6591;51.446;5.404;2023-03-19T00:20:25;1.37;;;1.27;;
13048;SDS011;6591;51.446;5.404;2023-03-19T00:22:53;3.10;;;1.47;;
13048;SDS011;6591;51.446;5.404;2023-03-19T00:25:21;1.77;;;1.40;;
13048;SDS011;6591;51.446;5.404;2023-03-19T00:27:49;1.80;;;1.40;;
13048;SDS011;6591;51.446;5.404;2023-03-19T00:30:18;1.97;;;1.40;;
13048;SDS011;6591;51.446;5.404;2023-03-19T00:32:45;2.27;;;1.67;;
13048;SDS011;6591;51.446;5.404;2023-03-19T00:35:14;1.90;;;1.47;;
13048;SDS011;6591;51.446;5.404;2023-03-19T00:37:41;1.70;;;1.50;;
13048;SDS011;6591;51.446;5.404;2023-03-19T00:40:08;2.07;;;1.40;;
13048;SDS011;6591;51.446;5.404;2023-03-19T00:42:37;2.37;;;1.47;;
13048;SDS011;6591;51.446;5.404;2023-03-19T00:45:04;2.33;;;1.87;;
13048;SDS011;6591;51.446;5.404;2023-03-19T00:47:33;2.27;;;1.67;;
13048;SDS011;6591;51.446;5.404;2023-03-19T00:50:02;2.53;;;1.40;;
13048;SDS011;6591;51.446;5.404;2023-03-19T00:52:30;1.87;;;1.70;;
13048;SDS011;6591;51.446;5.404;2023-03-19T00:54:57;1.63;;;1.40;;
13048;SDS011;6591;51.446;5.404;2023-03-19T00:57:24;2.73;;;2.00;;
13048;SDS011;6591;51.446;5.404;2023-03-19T00:59:51;1.80;;;1.53;;
13048;SDS011;6591;51.446;5.404;2023-03-19T01:02:18;2.77;;;1.60;;
13048;SDS011;6591;51.446;5.404;2023-03-19T01:04:49;1.63;;;1.53;;
13048;SDS011;6591;51.446;5.404;2023-03-19T01:07:16;1.60;;;1.33;;
13048;SDS011;6591;51.446;5.404;2023-03-19T01:09:44;2.40;;;1.60;;
13048;SDS011;6591;51.446;5.404;2023-03-19T01:12:13;1.70;;;1.60;;
13048;SDS011;6591;51.446;5.404;2023-03-19T01:14:40;2.87;;;1.83;;
13048;SDS011;6591;51.446;5.404;2023-03-19T01:17:07;2.90;;;1.67;;
13048;SDS011;6591;51.446;5.404;2023-03-19T01:19:34;2.10;;;1.70;;
13048;SDS011;6591;51.446;5.404;2023-03-19T01:22:02;1.80;;;1.70;;
13048;SDS011;6591;51.446;5.404;2023-03-19T01:24:31;2.40;;;1.80;;
13048;SDS011;6591;51.446;5.404;2023-03-19T01:26:59;1.70;;;1.50;;
13048;SDS011;6591;51.446;5.404;2023-03-19T01:29:33;1.90;;;1.60;;
13048;SDS011;6591;51.446;5.404;2023-03-19T01:32:14;2.00;;;1.57;;
13048;SDS011;6591;51.446;5.404;2023-03-19T01:35:02;1.70;;;1.50;;
13048;SDS011;6591;51.446;5.404;2023-03-19T01:37:30;4.37;;;2.00;;
13048;SDS011;6591;51.446;5.404;2023-03-19T01:39:58;2.53;;;1.90;;
13048;SDS011;6591;51.446;5.404;2023-03-19T01:42:25;1.87;;;1.77;;
13048;SDS011;6591;51.446;5.404;2023-03-19T01:45:31;1.90;;;1.70;;
13048;SDS011;6591;51.446;5.404;2023-03-19T01:48:48;2.50;;;1.67;;
13048;SDS011;6591;51.446;5.404;2023-03-19T01:51:27;2.07;;;1.87;;
13048;SDS011;6591;51.446;5.404;2023-03-19T01:54:24;3.97;;;2.00;;
13048;SDS011;6591;51.446;5.404;2023-03-19T01:57:06;2.03;;;1.83;;
13048;SDS011;6591;51.446;5.404;2023-03-19T01:59:56;2.23;;;1.93;;
13048;SDS011;6591;51.446;5.404;2023-03-19T02:02:42;2.60;;;2.10;;
13048;SDS011;6591;51.446;5.404;2023-03-19T02:05:33;2.53;;;2.07;;
13048;SDS011;6591;51.446;5.404;2023-03-19T02:08:08;3.47;;;2.10;;
13048;SDS011;6591;51.446;5.404;2023-03-19T02:10:39;2.47;;;2.13;;
13048;SDS011;6591;51.446;5.404;2023-03-19T02:13:09;3.20;;;2.17;;
13048;SDS011;6591;51.446;5.404;2023-03-19T02:15:37;2.50;;;2.20;;
13048;SDS011;6591;51.446;5.404;2023-03-19T02:18:04;2.37;;;2.10;;
13048;SDS011;6591;51.446;5.404;2023-03-19T02:20:54;2.40;;;2.10;;
13048;SDS011;6591;51.446;5.404;2023-03-19T02:26:38;3.47;;;2.20;;
13048;SDS011;6591;51.446;5.404;2023-03-19T02:29:08;2.90;;;2.17;;
13048;SDS011;6591;51.446;5.404;2023-03-19T02:31:35;2.93;;;2.40;;
13048;SDS011;6591;51.446;5.404;2023-03-19T02:36:56;2.70;;;2.37;;
13048;SDS011;6591;51.446;5.404;2023-03-19T02:39:55;2.87;;;2.60;;
13048;SDS011;6591;51.446;5.404;2023-03-19T02:42:30;4.10;;;2.40;;
13048;SDS011;6591;51.446;5.404;2023-03-19T02:44:57;3.10;;;2.60;;
13048;SDS011;6591;51.446;5.404;2023-03-19T02:47:25;3.17;;;2.83;;
13048;SDS011;6591;51.446;5.404;2023-03-19T02:49:53;3.17;;;2.53;;
13048;SDS011;6591;51.446;5.404;2023-03-19T02:52:21;3.87;;;2.70;;
13048;SDS011;6591;51.446;5.404;2023-03-19T02:54:48;2.90;;;2.60;;
13048;SDS011;6591;51.446;5.404;2023-03-19T02:57:16;2.73;;;2.43;;
13048;SDS011;6591;51.446;5.404;2023-03-19T02:59:43;3.67;;;2.60;;
13048;SDS011;6591;51.446;5.404;2023-03-19T03:02:10;3.10;;;2.80;;
13048;SDS011;6591;51.446;5.404;2023-03-19T03:04:37;2.50;;;2.30;;
13048;SDS011;6591;51.446;5.404;2023-03-19T03:07:04;3.20;;;2.50;;
13048;SDS011;6591;51.446;5.404;2023-03-19T03:09:33;2.80;;;2.47;;
13048;SDS011;6591;51.446;5.404;2023-03-19T03:12:00;2.93;;;2.40;;
13048;SDS011;6591;51.446;5.404;2023-03-19T03:14:28;2.80;;;2.30;;
13048;SDS011;6591;51.446;5.404;2023-03-19T03:16:56;3.90;;;2.93;;
13048;SDS011;6591;51.446;5.404;2023-03-19T03:19:23;2.67;;;2.47;;
13048;SDS011;6591;51.446;5.404;2023-03-19T03:21:51;3.13;;;2.43;;
13048;SDS011;6591;51.446;5.404;2023-03-19T03:24:18;4.03;;;2.53;;
13048;SDS011;6591;51.446;5.404;2023-03-19T03:26:45;3.37;;;2.80;;
13048;SDS011;6591;51.446;5.404;2023-03-19T03:29:13;3.30;;;2.50;;
13048;SDS011;6591;51.446;5.404;2023-03-19T03:31:40;3.23;;;2.60;;
13048;SDS011;6591;51.446;5.404;2023-03-19T03:34:08;3.83;;;2.67;;
13048;SDS011;6591;51.446;5.404;2023-03-19T03:36:36;2.57;;;2.37;;
13048;SDS011;6591;51.446;5.404;2023-03-19T03:39:03;3.70;;;2.73;;
13048;SDS011;6591;51.446;5.404;2023-03-19T03:41:30;3.67;;;2.37;;
13048;SDS011;6591;51.446;5.404;2023-03-19T03:43:59;3.20;;;2.70;;
13048;SDS011;6591;51.446;5.404;2023-03-19T03:46:28;3.67;;;2.70;;
13048;SDS011;6591;51.446;5.404;2023-03-19T03:48:56;3.23;;;2.70;;
13048;SDS011;6591;51.446;5.404;2023-03-19T03:51:23;2.97;;;2.67;;
13048;SDS011;6591;51.446;5.404;2023-03-19T03:53:50;2.87;;;2.63;;
13048;SDS011;6591;51.446;5.404;2023-03-19T03:56:17;2.60;;;2.40;;
13048;SDS011;6591;51.446;5.404;2023-03-19T03:58:45;3.27;;;2.60;;
13048;SDS011;6591;51.446;5.404;2023-03-19T04:01:13;2.90;;;2.60;;
13048;SDS011;6591;51.446;5.404;2023-03-19T04:03:45;3.17;;;2.87;;
13048;SDS011;6591;51.446;5.404;2023-03-19T04:06:14;4.30;;;3.37;;
13048;SDS011;6591;51.446;5.404;2023-03-19T04:08:48;4.00;;;3.07;;
13048;SDS011;6591;51.446;5.404;2023-03-19T04:11:16;3.83;;;3.23;;
13048;SDS011;6591;51.446;5.404;2023-03-19T04:13:44;3.50;;;2.90;;
13048;SDS011;6591;51.446;5.404;2023-03-19T04:16:12;3.87;;;3.37;;
13048;SDS011;6591;51.446;5.404;2023-03-19T04:18:40;4.27;;;3.33;;
13048;SDS011;6591;51.446;5.404;2023-03-19T04:21:08;3.17;;;2.87;;
13048;SDS011;6591;51.446;5.404;2023-03-19T04:23:35;5.23;;;3.50;;
13048;SDS011;6591;51.446;5.404;2023-03-19T04:26:03;4.00;;;3.60;;
13048;SDS011;6591;51.446;5.404;2023-03-19T04:28:34;6.10;;;4.40;;
13048;SDS011;6591;51.446;5.404;2023-03-19T04:31:02;3.70;;;3.40;;
13048;SDS011;6591;51.446;5.404;2023-03-19T04:33:38;4.00;;;3.60;;
13048;SDS011;6591;51.446;5.404;2023-03-19T04:36:05;4.17;;;3.50;;
13048;SDS011;6591;51.446;5.404;2023-03-19T04:38:35;4.20;;;3.43;;
13048;SDS011;6591;51.446;5.404;2023-03-19T04:41:02;4.77;;;3.60;;
13048;SDS011;6591;51.446;5.404;2023-03-19T04:43:32;3.97;;;3.50;;
13048;SDS011;6591;51.446;5.404;2023-03-19T04:46:02;3.87;;;3.47;;
13048;SDS011;6591;51.446;5.404;2023-03-19T04:48:30;4.00;;;3.60;;
13048;SDS011;6591;51.446;5.404;2023-03-19T04:50:57;4.03;;;3.70;;
13048;SDS011;6591;51.446;5.404;2023-03-19T04:53:24;4.03;;;3.63;;
13048;SDS011;6591;51.446;5.404;2023-03-19T04:55:52;4.40;;;3.73;;
13048;SDS011;6591;51.446;5.404;2023-03-19T04:58:19;4.87;;;3.80;;
13048;SDS011;6591;51.446;5.404;2023-03-19T05:00:54;3.90;;;3.53;;
13048;SDS011;6591;51.446;5.404;2023-03-19T05:03:35;4.03;;;3.60;;
13048;SDS011;6591;51.446;5.404;2023-03-19T05:06:02;4.23;;;3.83;;
13048;SDS011;6591;51.446;5.404;2023-03-19T05:08:30;4.27;;;3.87;;
13048;SDS011;6591;51.446;5.404;2023-03-19T05:10:57;4.37;;;3.83;;
13048;SDS011;6591;51.446;5.404;2023-03-19T05:13:31;5.17;;;4.67;;
13048;SDS011;6591;51.446;5.404;2023-03-19T05:15:58;5.30;;;4.47;;
13048;SDS011;6591;51.446;5.404;2023-03-19T05:18:25;4.77;;;4.30;;
13048;SDS011;6591;51.446;5.404;2023-03-19T05:20:52;4.90;;;4.20;;
13048;SDS011;6591;51.446;5.404;2023-03-19T05:23:21;5.63;;;4.57;;
13048;SDS011;6591;51.446;5.404;2023-03-19T05:26:05;5.40;;;4.50;;
13048;SDS011;6591;51.446;5.404;2023-03-19T05:29:02;5.17;;;4.20;;
13048;SDS011;6591;51.446;5.404;2023-03-19T05:31:40;5.23;;;4.50;;
13048;SDS011;6591;51.446;5.404;2023-03-19T05:34:07;5.07;;;4.40;;
13048;SDS011;6591;51.446;5.404;2023-03-19T05:36:34;5.43;;;4.93;;
13048;SDS011;6591;51.446;5.404;2023-03-19T05:39:10;5.87;;;4.57;;
13048;SDS011;6591;51.446;5.404;2023-03-19T05:41:40;5.50;;;4.47;;
13048;SDS011;6591;51.446;5.404;2023-03-19T05:44:09;5.47;;;4.60;;
13048;SDS011;6591;51.446;5.404;2023-03-19T05:47:02;5.03;;;4.53;;
13048;SDS011;6591;51.446;5.404;2023-03-19T05:49:33;4.67;;;4.17;;
13048;SDS011;6591;51.446;5.404;2023-03-19T05:52:02;5.00;;;4.27;;
13048;SDS011;6591;51.446;5.404;2023-03-19T05:54:30;5.10;;;4.30;;
13048;SDS011;6591;51.446;5.404;2023-03-19T05:57:20;5.17;;;4.67;;
13048;SDS011;6591;51.446;5.404;2023-03-19T05:59:56;5.60;;;4.90;;
13048;SDS011;6591;51.446;5.404;2023-03-19T06:02:39;5.07;;;4.57;;
13048;SDS011;6591;51.446;5.404;2023-03-19T06:05:29;4.90;;;4.40;;
13048;SDS011;6591;51.446;5.404;2023-03-19T06:08:04;5.80;;;4.80;;
13048;SDS011;6591;51.446;5.404;2023-03-19T06:10:49;5.70;;;4.93;;
13048;SDS011;6591;51.446;5.404;2023-03-19T06:13:19;7.77;;;5.40;;
13048;SDS011;6591;51.446;5.404;2023-03-19T06:15:57;6.20;;;5.00;;
13048;SDS011;6591;51.446;5.404;2023-03-19T06:18:48;5.90;;;4.83;;
13048;SDS011;6591;51.446;5.404;2023-03-19T06:21:15;6.07;;;5.00;;
13048;SDS011;6591;51.446;5.404;2023-03-19T06:23:42;6.03;;;5.43;;
13048;SDS011;6591;51.446;5.404;2023-03-19T06:26:13;5.60;;;4.73;;
13048;SDS011;6591;51.446;5.404;2023-03-19T06:28:51;6.13;;;5.40;;
13048;SDS011;6591;51.446;5.404;2023-03-19T06:31:19;6.97;;;6.00;;
13048;SDS011;6591;51.446;5.404;2023-03-19T06:33:53;5.83;;;5.30;;
13048;SDS011;6591;51.446;5.404;2023-03-19T06:36:25;5.80;;;5.20;;
13048;SDS011;6591;51.446;5.404;2023-03-19T06:38:52;5.87;;;5.30;;
13048;SDS011;6591;51.446;5.404;2023-03-19T06:41:20;5.97;;;5.30;;
13048;SDS011;6591;51.446;5.404;2023-03-19T06:43:48;7.90;;;5.80;;
13048;SDS011;6591;51.446;5.404;2023-03-19T06:46:16;7.07;;;5.50;;
13048;SDS011;6591;51.446;5.404;2023-03-19T06:48:43;5.97;;;5.37;;
13048;SDS011;6591;51.446;5.404;2023-03-19T06:51:10;6.23;;;5.07;;
13048;SDS011;6591;51.446;5.404;2023-03-19T06:53:37;6.60;;;5.90;;
13048;SDS011;6591;51.446;5.404;2023-03-19T06:56:05;6.13;;;5.53;;
13048;SDS011;6591;51.446;5.404;2023-03-19T06:58:32;6.50;;;5.90;;
13048;SDS011;6591;51.446;5.404;2023-03-19T07:01:00;6.40;;;5.67;;
13048;SDS011;6591;51.446;5.404;2023-03-19T07:03:28;7.07;;;6.20;;
13048;SDS011;6591;51.446;5.404;2023-03-19T07:05:55;6.57;;;5.87;;
13048;SDS011;6591;51.446;5.404;2023-03-19T07:08:22;6.20;;;5.57;;
13048;SDS011;6591;51.446;5.404;2023-03-19T07:10:53;6.77;;;6.17;;
13048;SDS011;6591;51.446;5.404;2023-03-19T07:13:20;6.93;;;6.23;;
13048;SDS011;6591;51.446;5.404;2023-03-19T07:15:48;6.50;;;5.90;;
13048;SDS011;6591;51.446;5.404;2023-03-19T07:18:15;6.97;;;6.27;;
13048;SDS011;6591;51.446;5.404;2023-03-19T07:20:43;6.50;;;5.73;;
13048;SDS011;6591;51.446;5.404;2023-03-19T07:23:11;6.63;;;5.93;;
13048;SDS011;6591;51.446;5.404;2023-03-19T07:25:38;6.37;;;5.77;;
13048;SDS011;6591;51.446;5.404;2023-03-19T07:28:09;8.70;;;5.70;;
13048;SDS011;6591;51.446;5.404;2023-03-19T07:30:37;8.50;;;6.40;;
13048;SDS011;6591;51.446;5.404;2023-03-19T07:33:10;6.97;;;5.73;;
13048;SDS011;6591;51.446;5.404;2023-03-19T07:35:38;6.23;;;5.60;;
13048;SDS011;6591;51.446;5.404;2023-03-19T07:38:06;8.57;;;6.43;;
13048;SDS011;6591;51.446;5.404;2023-03-19T07:40:37;8.33;;;5.97;;
13048;SDS011;6591;51.446;5.404;2023-03-19T07:43:11;5.93;;;5.33;;
13048;SDS011;6591;51.446;5.404;2023-03-19T07:45:40;7.17;;;6.07;;
13048;SDS011;6591;51.446;5.404;2023-03-19T07:48:08;7.57;;;6.33;;
13048;SDS011;6591;51.446;5.404;2023-03-19T07:50:36;7.40;;;5.93;;
13048;SDS011;6591;51.446;5.404;2023-03-19T07:53:08;7.50;;;6.50;;
13048;SDS011;6591;51.446;5.404;2023-03-19T07:55:35;7.97;;;6.37;;
13048;SDS011;6591;51.446;5.404;2023-03-19T07:58:03;7.83;;;6.30;;
13048;SDS011;6591;51.446;5.404;2023-03-19T08:00:33;7.67;;;6.87;;
13048;SDS011;6591;51.446;5.404;2023-03-19T08:03:01;9.73;;;6.57;;
13048;SDS011;6591;51.446;5.404;2023-03-19T08:05:29;8.30;;;6.60;;
13048;SDS011;6591;51.446;5.404;2023-03-19T08:07:56;9.73;;;7.17;;
13048;SDS011;6591;51.446;5.404;2023-03-19T08:10:23;9.33;;;7.33;;
13048;SDS011;6591;51.446;5.404;2023-03-19T08:12:50;11.73;;;8.40;;
13048;SDS011;6591;51.446;5.404;2023-03-19T08:15:17;9.53;;;7.17;;
13048;SDS011;6591;51.446;5.404;2023-03-19T08:17:45;12.00;;;7.03;;
13048;SDS011;6591;51.446;5.404;2023-03-19T08:20:13;9.77;;;6.93;;
13048;SDS011;6591;51.446;5.404;2023-03-19T08:22:42;8.63;;;6.60;;
13048;SDS011;6591;51.446;5.404;2023-03-19T08:25:09;8.97;;;6.00;;
13048;SDS011;6591;51.446;5.404;2023-03-19T08:27:37;10.93;;;6.17;;
13048;SDS011;6591;51.446;5.404;2023-03-19T08:30:05;10.50;;;7.17;;
13048;SDS011;6591;51.446;5.404;2023-03-19T08:32:35;8.70;;;6.00;;
13048;SDS011;6591;51.446;5.404;2023-03-19T08:35:03;10.77;;;5.83;;
13048;SDS011;6591;51.446;5.404;2023-03-19T08:37:31;7.20;;;5.67;;
13048;SDS011;6591;51.446;5.404;2023-03-19T08:39:59;7.17;;;5.17;;
13048;SDS011;6591;51.446;5.404;2023-03-19T08:42:26;8.03;;;5.20;;
13048;SDS011;6591;51.446;5.404;2023-03-19T08:44:54;9.13;;;5.40;;
13048;SDS011;6591;51.446;5.404;2023-03-19T08:47:25;10.67;;;5.70;;
13048;SDS011;6591;51.446;5.404;2023-03-19T08:49:52;12.33;;;6.10;;
13048;SDS011;6591;51.446;5.404;2023-03-19T08:52:20;8.73;;;5.27;;
13048;SDS011;6591;51.446;5.404;2023-03-19T08:54:47;10.73;;;5.43;;
13048;SDS011;6591;51.446;5.404;2023-03-19T08:57:14;8.03;;;5.10;;
13048;SDS011;6591;51.446;5.404;2023-03-19T08:59:41;10.00;;;4.70;;
13048;SDS011;6591;51.446;5.404;2023-03-19T09:02:10;7.70;;;5.27;;
13048;SDS011;6591;51.446;5.404;2023-03-19T09:04:41;8.93;;;5.30;;
13048;SDS011;6591;51.446;5.404;2023-03-19T09:07:09;7.07;;;4.90;;
13048;SDS011;6591;51.446;5.404;2023-03-19T09:09:38;7.43;;;4.83;;
13048;SDS011;6591;51.446;5.404;2023-03-19T09:12:07;7.23;;;5.03;;
13048;SDS011;6591;51.446;5.404;2023-03-19T09:14:37;9.50;;;5.10;;
13048;SDS011;6591;51.446;5.404;2023-03-19T09:17:05;13.43;;;5.57;;
13048;SDS011;6591;51.446;5.404;2023-03-19T09:19:32;7.97;;;4.97;;
13048;SDS011;6591;51.446;5.404;2023-03-19T09:22:00;9.57;;;4.77;;
13048;SDS011;6591;51.446;5.404;2023-03-19T09:24:28;11.27;;;5.10;;
13048;SDS011;6591;51.446;5.404;2023-03-19T09:26:55;10.67;;;5.37;;
13048;SDS011;6591;51.446;5.404;2023-03-19T09:29:22;11.47;;;5.37;;
13048;SDS011;6591;51.446;5.404;2023-03-19T09:31:49;10.07;;;5.03;;
13048;SDS011;6591;51.446;5.404;2023-03-19T09:34:16;9.23;;;5.20;;
13048;SDS011;6591;51.446;5.404;2023-03-19T09:36:44;8.07;;;4.67;;
13048;SDS011;6591;51.446;5.404;2023-03-19T09:39:11;8.83;;;4.97;;
13048;SDS011;6591;51.446;5.404;2023-03-19T09:41:54;7.63;;;4.73;;
13048;SDS011;6591;51.446;5.404;2023-03-19T09:44:36;9.13;;;4.67;;
13048;SDS011;6591;51.446;5.404;2023-03-19T09:47:25;7.17;;;4.30;;
13048;SDS011;6591;51.446;5.404;2023-03-19T09:49:58;8.80;;;4.27;;
13048;SDS011;6591;51.446;5.404;2023-03-19T09:52:39;6.63;;;4.73;;
13048;SDS011;6591;51.446;5.404;2023-03-19T09:58:04;6.95;;;4.13;;
13048;SDS011;6591;51.446;5.404;2023-03-19T10:00:49;6.60;;;4.13;;
13048;SDS011;6591;51.446;5.404;2023-03-19T10:06:25;6.90;;;4.60;;
13048;SDS011;6591;51.446;5.404;2023-03-19T10:11:56;10.88;;;4.88;;
13048;SDS011;6591;51.446;5.404;2023-03-19T10:14:47;7.25;;;4.13;;
13048;SDS011;6591;51.446;5.404;2023-03-19T10:17:38;7.53;;;3.97;;
13048;SDS011;6591;51.446;5.404;2023-03-19T10:20:29;5.38;;;3.63;;
13048;SDS011;6591;51.446;5.404;2023-03-19T10:26:16;7.75;;;4.30;;
13048;SDS011;6591;51.446;5.404;2023-03-19T10:28:52;8.10;;;3.85;;
13048;SDS011;6591;51.446;5.404;2023-03-19T10:31:55;9.07;;;3.70;;
13048;SDS011;6591;51.446;5.404;2023-03-19T10:34:47;7.85;;;3.50;;
13048;SDS011;6591;51.446;5.404;2023-03-19T10:37:28;7.55;;;3.40;;
13048;SDS011;6591;51.446;5.404;2023-03-19T10:39:57;6.05;;;3.17;;
13048;SDS011;6591;51.446;5.404;2023-03-19T10:45:32;6.05;;;3.15;;
13048;SDS011;6591;51.446;5.404;2023-03-19T10:48:04;5.60;;;2.97;;
13048;SDS011;6591;51.446;5.404;2023-03-19T10:56:20;3.97;;;2.15;;
13048;SDS011;6591;51.446;5.404;2023-03-19T11:01:40;7.25;;;2.70;;
13048;SDS011;6591;51.446;5.404;2023-03-19T11:04:18;3.78;;;2.38;;
13048;SDS011;6591;51.446;5.404;2023-03-19T11:06:51;6.55;;;2.63;;
13048;SDS011;6591;51.446;5.404;2023-03-19T11:09:50;5.90;;;2.72;;
13048;SDS011;6591;51.446;5.404;2023-03-19T11:14:57;6.10;;;2.53;;
13048;SDS011;6591;51.446;5.404;2023-03-19T11:20:27;5.72;;;2.65;;
13048;SDS011;6591;51.446;5.404;2023-03-19T11:23:00;4.15;;;2.42;;
13048;SDS011;6591;51.446;5.404;2023-03-19T11:25:36;3.92;;;2.30;;
13048;SDS011;6591;51.446;5.404;2023-03-19T11:28:16;3.97;;;2.33;;
13048;SDS011;6591;51.446;5.404;2023-03-19T11:40:04;5.32;;;2.70;;
13048;SDS011;6591;51.446;5.404;2023-03-19T11:52:26;5.10;;;3.08;;
13048;SDS011;6591;51.446;5.404;2023-03-19T12:08:42;7.90;;;3.80;;
13048;SDS011;6591;51.446;5.404;2023-03-19T12:11:34;4.50;;;3.30;;
13048;SDS011;6591;51.446;5.404;2023-03-19T12:14:41;3.88;;;2.90;;
13048;SDS011;6591;51.446;5.404;2023-03-19T12:20:42;6.32;;;3.50;;
13048;SDS011;6591;51.446;5.404;2023-03-19T12:29:34;4.18;;;3.20;;
13048;SDS011;6591;51.446;5.404;2023-03-19T12:35:13;7.60;;;4.13;;
13048;SDS011;6591;51.446;5.404;2023-03-19T12:41:10;9.80;;;4.90;;
13048;SDS011;6591;51.446;5.404;2023-03-19T12:43:52;5.28;;;4.25;;
13048;SDS011;6591;51.446;5.404;2023-03-19T12:52:37;7.10;;;6.40;;
13048;SDS011;6591;51.446;5.404;2023-03-19T12:57:48;8.38;;;7.28;;
13048;SDS011;6591;51.446;5.404;2023-03-19T13:00:21;8.55;;;7.65;;
13048;SDS011;6591;51.446;5.404;2023-03-19T13:03:06;9.05;;;8.15;;
13048;SDS011;6591;51.446;5.404;2023-03-19T13:05:46;11.32;;;10.02;;
13048;SDS011;6591;51.446;5.404;2023-03-19T13:08:31;11.43;;;10.20;;
13048;SDS011;6591;51.446;5.404;2023-03-19T13:17:30;9.77;;;8.50;;
13048;SDS011;6591;51.446;5.404;2023-03-19T13:21:06;9.20;;;8.25;;
13048;SDS011;6591;51.446;5.404;2023-03-19T13:23:25;11.13;;;9.02;;
13048;SDS011;6591;51.446;5.404;2023-03-19T13:26:01;13.00;;;10.70;;
13048;SDS011;6591;51.446;5.404;2023-03-19T13:28:52;9.75;;;8.85;;
13048;SDS011;6591;51.446;5.404;2023-03-19T13:31:27;14.18;;;12.70;;
13048;SDS011;6591;51.446;5.404;2023-03-19T13:36:37;12.65;;;11.45;;
13048;SDS011;6591;51.446;5.404;2023-03-19T13:39:10;14.10;;;11.93;;
13048;SDS011;6591;51.446;5.404;2023-03-19T13:48:21;13.27;;;11.90;;
13048;SDS011;6591;51.446;5.404;2023-03-19T13:51:04;13.25;;;11.95;;
13048;SDS011;6591;51.446;5.404;2023-03-19T13:54:06;12.88;;;11.57;;
13048;SDS011;6591;51.446;5.404;2023-03-19T14:07:26;13.60;;;12.18;;
13048;SDS011;6591;51.446;5.404;2023-03-19T14:10:03;15.63;;;13.95;;
13048;SDS011;6591;51.446;5.404;2023-03-19T14:12:40;14.30;;;12.82;;
13048;SDS011;6591;51.446;5.404;2023-03-19T14:20:31;13.90;;;12.00;;
13048;SDS011;6591;51.446;5.404;2023-03-19T14:23:18;14.82;;;13.25;;
13048;SDS011;6591;51.446;5.404;2023-03-19T14:26:18;13.98;;;12.57;;
13048;SDS011;6591;51.446;5.404;2023-03-19T14:28:55;12.38;;;11.18;;
13048;SDS011;6591;51.446;5.404;2023-03-19T14:31:41;12.68;;;10.75;;
13048;SDS011;6591;51.446;5.404;2023-03-19T14:39:46;9.45;;;8.43;;
13048;SDS011;6591;51.446;5.404;2023-03-19T14:53:55;9.30;;;8.40;;
13048;SDS011;6591;51.446;5.404;2023-03-19T14:56:46;9.18;;;7.95;;
13048;SDS011;6591;51.446;5.404;2023-03-19T14:59:13;8.93;;;8.02;;
13048;SDS011;6591;51.446;5.404;2023-03-19T15:01:43;9.57;;;8.57;;
13048;SDS011;6591;51.446;5.404;2023-03-19T15:04:19;9.23;;;8.25;;
13048;SDS011;6591;51.446;5.404;2023-03-19T15:06:55;11.00;;;7.78;;
13048;SDS011;6591;51.446;5.404;2023-03-19T15:09:27;9.63;;;8.27;;
13048;SDS011;6591;51.446;5.404;2023-03-19T15:18:38;12.88;;;11.57;;
13048;SDS011;6591;51.446;5.404;2023-03-19T15:21:06;12.70;;;11.40;;
13048;SDS011;6591;51.446;5.404;2023-03-19T15:23:33;13.68;;;11.70;;
13048;SDS011;6591;51.446;5.404;2023-03-19T15:26:03;11.93;;;10.73;;
13048;SDS011;6591;51.446;5.404;2023-03-19T15:28:47;12.75;;;11.25;;
13048;SDS011;6591;51.446;5.404;2023-03-19T15:31:19;12.07;;;10.77;;
13048;SDS011;6591;51.446;5.404;2023-03-19T15:34:23;11.85;;;10.68;;
13048;SDS011;6591;51.446;5.404;2023-03-19T15:36:58;13.50;;;11.85;;
13048;SDS011;6591;51.446;5.404;2023-03-19T15:39:36;12.93;;;11.02;;
13048;SDS011;6591;51.446;5.404;2023-03-19T15:42:14;12.07;;;10.88;;
13048;SDS011;6591;51.446;5.404;2023-03-19T15:44:46;11.32;;;10.07;;
13048;SDS011;6591;51.446;5.404;2023-03-19T15:47:37;10.13;;;8.93;;
13048;SDS011;6591;51.446;5.404;2023-03-19T15:50:23;20.40;;;11.85;;
13048;SDS011;6591;51.446;5.404;2023-03-19T15:53:30;12.88;;;11.63;;
13048;SDS011;6591;51.446;5.404;2023-03-19T15:55:53;15.63;;;11.88;;
13048;SDS011;6591;51.446;5.404;2023-03-19T15:58:22;16.17;;;14.02;;
13048;SDS011;6591;51.446;5.404;2023-03-19T16:00:54;16.40;;;13.63;;
13048;SDS011;6591;51.446;5.404;2023-03-19T16:03:25;17.13;;;14.02;;
13048;SDS011;6591;51.446;5.404;2023-03-19T16:06:04;18.63;;;14.30;;
13048;SDS011;6591;51.446;5.404;2023-03-19T16:09:25;18.90;;;14.60;;
13048;SDS011;6591;51.446;5.404;2023-03-19T16:11:50;18.10;;;14.27;;
13048;SDS011;6591;51.446;5.404;2023-03-19T16:14:23;14.10;;;12.15;;
13048;SDS011;6591;51.446;5.404;2023-03-19T16:17:12;15.00;;;12.17;;
13048;SDS011;6591;51.446;5.404;2023-03-19T16:19:50;14.75;;;12.25;;
13048;SDS011;6591;51.446;5.404;2023-03-19T16:22:22;17.63;;;13.00;;
13048;SDS011;6591;51.446;5.404;2023-03-19T16:24:54;15.43;;;11.63;;
13048;SDS011;6591;51.446;5.404;2023-03-19T16:27:33;14.30;;;11.23;;
13048;SDS011;6591;51.446;5.404;2023-03-19T16:30:12;12.87;;;10.57;;
13048;SDS011;6591;51.446;5.404;2023-03-19T16:32:57;13.07;;;10.47;;
13048;SDS011;6591;51.446;5.404;2023-03-19T16:35:26;11.17;;;9.90;;
13048;SDS011;6591;51.446;5.404;2023-03-19T16:38:14;10.33;;;8.10;;
13048;SDS011;6591;51.446;5.404;2023-03-19T16:41:14;9.40;;;7.53;;
13048;SDS011;6591;51.446;5.404;2023-03-19T16:43:51;9.53;;;7.90;;
13048;SDS011;6591;51.446;5.404;2023-03-19T16:46:19;9.57;;;7.27;;
13048;SDS011;6591;51.446;5.404;2023-03-19T16:48:46;9.23;;;6.97;;
13048;SDS011;6591;51.446;5.404;2023-03-19T16:51:14;7.23;;;6.27;;
13048;SDS011;6591;51.446;5.404;2023-03-19T16:53:45;8.02;;;6.68;;
13048;SDS011;6591;51.446;5.404;2023-03-19T16:56:14;9.13;;;6.60;;
13048;SDS011;6591;51.446;5.404;2023-03-19T16:58:43;7.53;;;6.50;;
13048;SDS011;6591;51.446;5.404;2023-03-19T17:01:15;8.07;;;5.97;;
13048;SDS011;6591;51.446;5.404;2023-03-19T17:03:46;8.27;;;6.60;;
13048;SDS011;6591;51.446;5.404;2023-03-19T17:06:14;8.07;;;6.07;;
13048;SDS011;6591;51.446;5.404;2023-03-19T17:08:42;8.07;;;6.27;;
13048;SDS011;6591;51.446;5.404;2023-03-19T17:14:01;8.60;;;7.37;;
13048;SDS011;6591;51.446;5.404;2023-03-19T17:16:31;8.93;;;7.23;;
13048;SDS011;6591;51.446;5.404;2023-03-19T17:18:59;9.07;;;7.40;;
13048;SDS011;6591;51.446;5.404;2023-03-19T17:21:27;7.10;;;6.40;;
13048;SDS011;6591;51.446;5.404;2023-03-19T17:24:00;9.33;;;7.20;;
13048;SDS011;6591;51.446;5.404;2023-03-19T17:27:01;8.30;;;6.83;;
13048;SDS011;6591;51.446;5.404;2023-03-19T17:29:29;8.87;;;6.57;;
13048;SDS011;6591;51.446;5.404;2023-03-19T17:31:58;7.70;;;6.47;;
13048;SDS011;6591;51.446;5.404;2023-03-19T17:34:27;7.87;;;6.70;;
13048;SDS011;6591;51.446;5.404;2023-03-19T17:36:58;8.30;;;7.40;;
13048;SDS011;6591;51.446;5.404;2023-03-19T17:39:28;7.90;;;6.60;;
13048;SDS011;6591;51.446;5.404;2023-03-19T17:41:57;9.20;;;7.63;;
13048;SDS011;6591;51.446;5.404;2023-03-19T17:44:25;11.50;;;8.17;;
13048;SDS011;6591;51.446;5.404;2023-03-19T17:46:53;11.50;;;8.33;;
13048;SDS011;6591;51.446;5.404;2023-03-19T17:49:28;11.80;;;8.50;;
13048;SDS011;6591;51.446;5.404;2023-03-19T17:51:59;11.97;;;7.73;;
13048;SDS011;6591;51.446;5.404;2023-03-19T17:54:26;11.47;;;8.07;;
13048;SDS011;6591;51.446;5.404;2023-03-19T17:56:54;10.70;;;8.23;;
13048;SDS011;6591;51.446;5.404;2023-03-19T17:59:21;11.60;;;7.87;;
13048;SDS011;6591;51.446;5.404;2023-03-19T18:01:49;11.30;;;7.57;;
13048;SDS011;6591;51.446;5.404;2023-03-19T18:04:18;10.70;;;7.10;;